Aérodrome :
LOGIN :

S'inscrire | Disclaimer

   EN    FR    IT 

 










Légende :    VFR   VFR Marginal   IFR   IFR Intensif   IFR Très Intensif
Visi : 
Plafond : 
>= 8 km
>= 3000ft
5 à 8 km
1000 à 3000 ft
1500m à 5 km
500 à 1000 ft
800 à 1500m
200 à 500 ft
< 800m
< 200 ft
Symboles :   Orages  Brouillard  Fortes neiges  Fortes précipitations  Vent > 20 kt
SIGMETs :   Divers  Orages  Givrage  Turbulence  Onde Orograph.  Cendres Volcan.







- Altitude de l'aérodrome : 1187 ft


LIBV - Gioia del Colle Bari

DERNIER METAR :
  • 222155Z 19008KT CAVOK 05/01 Q1002 RMK SCT SCT130 VIS MIN 9999 WIND THR32 19010KT WIND THR14 20006KT BLU

METARs EXPIRÉS :
  • 222055Z 17007KT CAVOK 05/01 Q1002 RMK SCT SCT140 VIS MIN 9999 WIND THR32 19005KT WIND THR14 17008KT BLU
  • 221955Z 17010KT CAVOK 05/01 Q1002 RMK SCT SCT100 VIS MIN 9999 WIND THR32 17008KT WIND THR14 17008KT BLU

TAF TAF LIBV
Valide du 22 à 21h jusqu'au 23 à 06h UTC


222000Z 2221/2306 19008KT 7000 SCT015
Pas de NOTAMs connus pour ce terrain.



MET'MAP, la Météo Aéronautique d'un coup d'oeil ! - Copyright ORBIFLY Décembre 2007 - Disclaimer

ORBIFLY MET'MAP TEAM :

Programmation & Développement : Alexandra Zaïnal
Conception & Développement : Baudouin d'Aumeries
Co-Programmation & Développement : Marc-Olivier Méhu
Soutien technique & logistique : Manuel Goepfert

Contact : metmap@orbifly.com




SOURCES & CREDITS :

   NOAA